sensor_id;sensor_type;location;lat;lon;timestamp;P1;durP1;ratioP1;P2;durP2;ratioP2
1475;SDS011;730;48.870;12.542;2023-02-28T00:01:23;7.25;;;3.42;;
1475;SDS011;730;48.870;12.542;2023-02-28T00:03:50;3.83;;;3.42;;
1475;SDS011;730;48.870;12.542;2023-02-28T00:06:16;3.92;;;3.47;;
1475;SDS011;730;48.870;12.542;2023-02-28T00:08:42;3.38;;;2.88;;
1475;SDS011;730;48.870;12.542;2023-02-28T00:11:09;3.97;;;3.30;;
1475;SDS011;730;48.870;12.542;2023-02-28T00:13:41;4.05;;;3.15;;
1475;SDS011;730;48.870;12.542;2023-02-28T00:16:13;3.17;;;2.72;;
1475;SDS011;730;48.870;12.542;2023-02-28T00:18:41;3.60;;;3.28;;
1475;SDS011;730;48.870;12.542;2023-02-28T00:21:07;4.00;;;3.70;;
1475;SDS011;730;48.870;12.542;2023-02-28T00:23:33;4.40;;;3.60;;
1475;SDS011;730;48.870;12.542;2023-02-28T00:26:00;2.88;;;2.58;;
1475;SDS011;730;48.870;12.542;2023-02-28T00:28:26;4.57;;;3.60;;
1475;SDS011;730;48.870;12.542;2023-02-28T00:30:52;4.80;;;3.83;;
1475;SDS011;730;48.870;12.542;2023-02-28T00:33:19;3.42;;;3.13;;
1475;SDS011;730;48.870;12.542;2023-02-28T00:35:45;3.90;;;3.10;;
1475;SDS011;730;48.870;12.542;2023-02-28T00:38:12;3.50;;;3.20;;
1475;SDS011;730;48.870;12.542;2023-02-28T00:40:39;3.47;;;3.05;;
1475;SDS011;730;48.870;12.542;2023-02-28T00:43:05;4.13;;;3.25;;
1475;SDS011;730;48.870;12.542;2023-02-28T00:45:31;4.30;;;3.08;;
1475;SDS011;730;48.870;12.542;2023-02-28T00:47:57;5.05;;;3.35;;
1475;SDS011;730;48.870;12.542;2023-02-28T00:50:23;3.30;;;2.85;;
1475;SDS011;730;48.870;12.542;2023-02-28T00:52:49;4.90;;;4.25;;
1475;SDS011;730;48.870;12.542;2023-02-28T00:55:15;4.88;;;3.65;;
1475;SDS011;730;48.870;12.542;2023-02-28T00:57:41;5.70;;;3.67;;
1475;SDS011;730;48.870;12.542;2023-02-28T01:00:08;5.88;;;4.10;;
1475;SDS011;730;48.870;12.542;2023-02-28T01:02:34;3.85;;;3.13;;
1475;SDS011;730;48.870;12.542;2023-02-28T01:05:00;4.85;;;3.50;;
1475;SDS011;730;48.870;12.542;2023-02-28T01:07:26;4.32;;;3.92;;
1475;SDS011;730;48.870;12.542;2023-02-28T01:09:52;5.13;;;3.40;;
1475;SDS011;730;48.870;12.542;2023-02-28T01:12:18;4.35;;;3.70;;
1475;SDS011;730;48.870;12.542;2023-02-28T01:14:44;4.60;;;4.10;;
1475;SDS011;730;48.870;12.542;2023-02-28T01:17:11;4.80;;;3.67;;
1475;SDS011;730;48.870;12.542;2023-02-28T01:19:37;6.00;;;4.10;;
1475;SDS011;730;48.870;12.542;2023-02-28T01:22:04;5.00;;;3.60;;
1475;SDS011;730;48.870;12.542;2023-02-28T01:24:30;4.40;;;4.00;;
1475;SDS011;730;48.870;12.542;2023-02-28T01:26:57;6.45;;;4.72;;
1475;SDS011;730;48.870;12.542;2023-02-28T01:29:23;5.28;;;4.22;;
1475;SDS011;730;48.870;12.542;2023-02-28T01:31:49;4.43;;;4.03;;
1475;SDS011;730;48.870;12.542;2023-02-28T01:34:15;4.40;;;3.72;;
1475;SDS011;730;48.870;12.542;2023-02-28T01:36:44;4.88;;;4.38;;
1475;SDS011;730;48.870;12.542;2023-02-28T01:39:11;4.45;;;3.70;;
1475;SDS011;730;48.870;12.542;2023-02-28T01:41:38;5.05;;;3.92;;
1475;SDS011;730;48.870;12.542;2023-02-28T01:46:51;4.57;;;3.92;;
1475;SDS011;730;48.870;12.542;2023-02-28T01:49:26;4.60;;;3.72;;
1475;SDS011;730;48.870;12.542;2023-02-28T01:51:53;4.25;;;3.55;;
1475;SDS011;730;48.870;12.542;2023-02-28T01:56:57;5.82;;;4.07;;
1475;SDS011;730;48.870;12.542;2023-02-28T01:59:48;4.18;;;3.20;;
1475;SDS011;730;48.870;12.542;2023-02-28T02:02:27;4.63;;;3.25;;
1475;SDS011;730;48.870;12.542;2023-02-28T02:04:55;4.78;;;4.00;;
1475;SDS011;730;48.870;12.542;2023-02-28T02:07:26;5.60;;;4.32;;
1475;SDS011;730;48.870;12.542;2023-02-28T02:10:02;5.13;;;4.53;;
1475;SDS011;730;48.870;12.542;2023-02-28T02:21:16;6.38;;;4.57;;
1475;SDS011;730;48.870;12.542;2023-02-28T02:35:29;6.65;;;4.85;;
1475;SDS011;730;48.870;12.542;2023-02-28T02:40:47;5.80;;;4.70;;
1475;SDS011;730;48.870;12.542;2023-02-28T02:43:32;5.72;;;4.50;;
1475;SDS011;730;48.870;12.542;2023-02-28T02:46:06;4.40;;;4.00;;
1475;SDS011;730;48.870;12.542;2023-02-28T02:48:38;7.18;;;5.00;;
1475;SDS011;730;48.870;12.542;2023-02-28T02:51:07;6.30;;;4.43;;
1475;SDS011;730;48.870;12.542;2023-02-28T02:53:41;5.38;;;4.45;;
1475;SDS011;730;48.870;12.542;2023-02-28T02:56:12;5.43;;;4.30;;
1475;SDS011;730;48.870;12.542;2023-02-28T02:58:40;5.55;;;4.45;;
1475;SDS011;730;48.870;12.542;2023-02-28T03:01:10;8.23;;;5.20;;
1475;SDS011;730;48.870;12.542;2023-02-28T03:03:41;5.78;;;4.43;;
1475;SDS011;730;48.870;12.542;2023-02-28T03:06:08;7.07;;;5.15;;
1475;SDS011;730;48.870;12.542;2023-02-28T03:08:36;6.03;;;5.20;;
1475;SDS011;730;48.870;12.542;2023-02-28T03:11:04;4.70;;;4.20;;
1475;SDS011;730;48.870;12.542;2023-02-28T03:13:42;5.35;;;4.22;;
1475;SDS011;730;48.870;12.542;2023-02-28T03:16:38;6.90;;;4.38;;
1475;SDS011;730;48.870;12.542;2023-02-28T03:19:30;5.45;;;4.40;;
1475;SDS011;730;48.870;12.542;2023-02-28T03:25:12;5.50;;;5.00;;
1475;SDS011;730;48.870;12.542;2023-02-28T03:27:45;6.80;;;4.47;;
1475;SDS011;730;48.870;12.542;2023-02-28T03:30:38;6.03;;;5.35;;
1475;SDS011;730;48.870;12.542;2023-02-28T03:33:33;5.60;;;4.55;;
1475;SDS011;730;48.870;12.542;2023-02-28T03:36:14;5.90;;;4.82;;
1475;SDS011;730;48.870;12.542;2023-02-28T03:38:51;5.72;;;5.10;;
1475;SDS011;730;48.870;12.542;2023-02-28T03:44:18;6.35;;;5.35;;
1475;SDS011;730;48.870;12.542;2023-02-28T03:46:51;6.30;;;5.15;;
1475;SDS011;730;48.870;12.542;2023-02-28T03:49:24;6.28;;;5.25;;
1475;SDS011;730;48.870;12.542;2023-02-28T03:51:55;6.05;;;5.20;;
1475;SDS011;730;48.870;12.542;2023-02-28T03:54:31;6.35;;;4.65;;
1475;SDS011;730;48.870;12.542;2023-02-28T04:00:03;5.43;;;4.93;;
1475;SDS011;730;48.870;12.542;2023-02-28T04:02:37;6.57;;;5.60;;
1475;SDS011;730;48.870;12.542;2023-02-28T04:05:05;5.72;;;5.03;;
1475;SDS011;730;48.870;12.542;2023-02-28T04:07:32;8.10;;;5.68;;
1475;SDS011;730;48.870;12.542;2023-02-28T04:09:58;7.65;;;5.82;;
1475;SDS011;730;48.870;12.542;2023-02-28T04:12:25;6.72;;;5.90;;
1475;SDS011;730;48.870;12.542;2023-02-28T04:14:51;7.40;;;5.22;;
1475;SDS011;730;48.870;12.542;2023-02-28T04:17:17;9.75;;;6.25;;
1475;SDS011;730;48.870;12.542;2023-02-28T04:19:43;6.65;;;6.00;;
1475;SDS011;730;48.870;12.542;2023-02-28T04:22:09;5.70;;;5.20;;
1475;SDS011;730;48.870;12.542;2023-02-28T04:24:36;7.57;;;5.95;;
1475;SDS011;730;48.870;12.542;2023-02-28T04:27:02;6.38;;;5.75;;
1475;SDS011;730;48.870;12.542;2023-02-28T04:29:29;5.90;;;5.10;;
1475;SDS011;730;48.870;12.542;2023-02-28T04:31:58;6.20;;;5.45;;
1475;SDS011;730;48.870;12.542;2023-02-28T04:34:26;7.40;;;6.00;;
1475;SDS011;730;48.870;12.542;2023-02-28T04:36:53;7.90;;;6.93;;
1475;SDS011;730;48.870;12.542;2023-02-28T04:39:20;8.68;;;6.15;;
1475;SDS011;730;48.870;12.542;2023-02-28T04:41:47;7.80;;;6.05;;
1475;SDS011;730;48.870;12.542;2023-02-28T04:44:14;8.07;;;6.10;;
1475;SDS011;730;48.870;12.542;2023-02-28T04:46:41;8.15;;;6.10;;
1475;SDS011;730;48.870;12.542;2023-02-28T04:49:08;9.95;;;5.50;;
1475;SDS011;730;48.870;12.542;2023-02-28T04:51:36;7.35;;;5.88;;
1475;SDS011;730;48.870;12.542;2023-02-28T04:54:02;7.13;;;5.75;;
1475;SDS011;730;48.870;12.542;2023-02-28T04:56:30;7.97;;;5.85;;
1475;SDS011;730;48.870;12.542;2023-02-28T04:58:56;10.48;;;6.25;;
1475;SDS011;730;48.870;12.542;2023-02-28T05:03:53;8.48;;;6.10;;
1475;SDS011;730;48.870;12.542;2023-02-28T05:06:21;7.07;;;5.93;;
1475;SDS011;730;48.870;12.542;2023-02-28T05:08:49;7.97;;;6.35;;
1475;SDS011;730;48.870;12.542;2023-02-28T05:11:20;6.95;;;6.05;;
1475;SDS011;730;48.870;12.542;2023-02-28T05:14:06;7.75;;;6.13;;
1475;SDS011;730;48.870;12.542;2023-02-28T05:16:35;6.93;;;5.78;;
1475;SDS011;730;48.870;12.542;2023-02-28T05:19:01;9.55;;;7.03;;
1475;SDS011;730;48.870;12.542;2023-02-28T05:21:34;6.88;;;6.18;;
1475;SDS011;730;48.870;12.542;2023-02-28T05:24:03;8.30;;;6.38;;
1475;SDS011;730;48.870;12.542;2023-02-28T05:26:33;7.95;;;6.70;;
1475;SDS011;730;48.870;12.542;2023-02-28T05:29:00;8.20;;;6.50;;
1475;SDS011;730;48.870;12.542;2023-02-28T05:31:26;8.15;;;6.50;;
1475;SDS011;730;48.870;12.542;2023-02-28T05:33:52;6.38;;;5.65;;
1475;SDS011;730;48.870;12.542;2023-02-28T05:36:19;9.98;;;7.28;;
1475;SDS011;730;48.870;12.542;2023-02-28T05:38:46;10.18;;;8.40;;
1475;SDS011;730;48.870;12.542;2023-02-28T05:41:13;8.88;;;7.03;;
1475;SDS011;730;48.870;12.542;2023-02-28T05:43:40;8.82;;;6.82;;
1475;SDS011;730;48.870;12.542;2023-02-28T05:46:07;6.82;;;5.50;;
1475;SDS011;730;48.870;12.542;2023-02-28T05:48:34;7.85;;;6.45;;
1475;SDS011;730;48.870;12.542;2023-02-28T05:51:02;10.23;;;6.88;;
1475;SDS011;730;48.870;12.542;2023-02-28T05:53:30;11.00;;;6.72;;
1475;SDS011;730;48.870;12.542;2023-02-28T05:55:56;10.45;;;7.93;;
1475;SDS011;730;48.870;12.542;2023-02-28T05:58:22;16.35;;;7.70;;
1475;SDS011;730;48.870;12.542;2023-02-28T06:00:50;9.13;;;8.02;;
1475;SDS011;730;48.870;12.542;2023-02-28T06:03:16;12.57;;;7.40;;
1475;SDS011;730;48.870;12.542;2023-02-28T06:05:42;8.95;;;7.85;;
1475;SDS011;730;48.870;12.542;2023-02-28T06:08:08;8.80;;;7.25;;
1475;SDS011;730;48.870;12.542;2023-02-28T06:10:34;8.07;;;7.20;;
1475;SDS011;730;48.870;12.542;2023-02-28T06:13:01;8.02;;;6.22;;
1475;SDS011;730;48.870;12.542;2023-02-28T06:15:30;10.38;;;7.03;;
1475;SDS011;730;48.870;12.542;2023-02-28T06:17:57;6.32;;;5.53;;
1475;SDS011;730;48.870;12.542;2023-02-28T06:20:24;9.23;;;6.95;;
1475;SDS011;730;48.870;12.542;2023-02-28T06:22:51;8.20;;;6.70;;
1475;SDS011;730;48.870;12.542;2023-02-28T06:25:19;6.70;;;5.95;;
1475;SDS011;730;48.870;12.542;2023-02-28T06:27:45;9.27;;;7.68;;
1475;SDS011;730;48.870;12.542;2023-02-28T06:30:12;10.20;;;6.60;;
1475;SDS011;730;48.870;12.542;2023-02-28T06:32:38;8.88;;;7.65;;
1475;SDS011;730;48.870;12.542;2023-02-28T06:35:09;8.80;;;6.50;;
1475;SDS011;730;48.870;12.542;2023-02-28T06:37:35;8.30;;;5.82;;
1475;SDS011;730;48.870;12.542;2023-02-28T06:40:02;7.55;;;6.20;;
1475;SDS011;730;48.870;12.542;2023-02-28T06:42:28;7.05;;;6.35;;
1475;SDS011;730;48.870;12.542;2023-02-28T06:44:56;7.55;;;6.13;;
1475;SDS011;730;48.870;12.542;2023-02-28T06:47:22;8.18;;;6.35;;
1475;SDS011;730;48.870;12.542;2023-02-28T06:49:49;7.53;;;6.20;;
1475;SDS011;730;48.870;12.542;2023-02-28T06:52:15;7.25;;;5.82;;
1475;SDS011;730;48.870;12.542;2023-02-28T06:54:41;7.88;;;5.68;;
1475;SDS011;730;48.870;12.542;2023-02-28T06:57:07;7.32;;;6.25;;
1475;SDS011;730;48.870;12.542;2023-02-28T06:59:33;8.75;;;6.00;;
1475;SDS011;730;48.870;12.542;2023-02-28T07:02:00;7.13;;;5.38;;
1475;SDS011;730;48.870;12.542;2023-02-28T07:04:27;6.95;;;6.10;;
1475;SDS011;730;48.870;12.542;2023-02-28T07:06:54;5.82;;;5.18;;
1475;SDS011;730;48.870;12.542;2023-02-28T07:09:22;7.47;;;5.40;;
1475;SDS011;730;48.870;12.542;2023-02-28T07:11:48;6.90;;;5.63;;
1475;SDS011;730;48.870;12.542;2023-02-28T07:14:14;7.20;;;5.75;;
1475;SDS011;730;48.870;12.542;2023-02-28T07:16:40;6.65;;;5.70;;
1475;SDS011;730;48.870;12.542;2023-02-28T07:19:07;7.50;;;5.55;;
1475;SDS011;730;48.870;12.542;2023-02-28T07:21:33;5.13;;;4.57;;
1475;SDS011;730;48.870;12.542;2023-02-28T07:23:59;7.13;;;5.57;;
1475;SDS011;730;48.870;12.542;2023-02-28T07:26:25;6.63;;;5.93;;
1475;SDS011;730;48.870;12.542;2023-02-28T07:28:51;6.35;;;4.88;;
1475;SDS011;730;48.870;12.542;2023-02-28T07:31:17;7.00;;;6.20;;
1475;SDS011;730;48.870;12.542;2023-02-28T07:33:44;5.88;;;5.13;;
1475;SDS011;730;48.870;12.542;2023-02-28T07:36:12;7.32;;;5.90;;
1475;SDS011;730;48.870;12.542;2023-02-28T07:38:47;5.95;;;5.28;;
1475;SDS011;730;48.870;12.542;2023-02-28T07:41:15;5.70;;;4.80;;
1475;SDS011;730;48.870;12.542;2023-02-28T07:43:42;6.95;;;6.13;;
1475;SDS011;730;48.870;12.542;2023-02-28T07:46:11;7.90;;;6.15;;
1475;SDS011;730;48.870;12.542;2023-02-28T07:48:42;9.43;;;5.82;;
1475;SDS011;730;48.870;12.542;2023-02-28T07:51:09;7.38;;;5.78;;
1475;SDS011;730;48.870;12.542;2023-02-28T07:53:35;6.77;;;6.17;;
1475;SDS011;730;48.870;12.542;2023-02-28T07:56:02;7.47;;;5.28;;
1475;SDS011;730;48.870;12.542;2023-02-28T07:58:29;7.47;;;5.10;;
1475;SDS011;730;48.870;12.542;2023-02-28T08:00:56;6.10;;;5.57;;
1475;SDS011;730;48.870;12.542;2023-02-28T08:03:23;7.10;;;6.40;;
1475;SDS011;730;48.870;12.542;2023-02-28T08:05:50;7.80;;;5.77;;
1475;SDS011;730;48.870;12.542;2023-02-28T08:08:17;5.53;;;4.90;;
1475;SDS011;730;48.870;12.542;2023-02-28T08:10:44;6.87;;;5.57;;
1475;SDS011;730;48.870;12.542;2023-02-28T08:13:10;5.90;;;5.00;;
1475;SDS011;730;48.870;12.542;2023-02-28T08:15:36;7.80;;;5.20;;
1475;SDS011;730;48.870;12.542;2023-02-28T08:18:02;5.20;;;4.63;;
1475;SDS011;730;48.870;12.542;2023-02-28T08:20:28;5.87;;;4.93;;
1475;SDS011;730;48.870;12.542;2023-02-28T08:22:54;8.73;;;5.17;;
1475;SDS011;730;48.870;12.542;2023-02-28T08:25:20;6.77;;;5.60;;
1475;SDS011;730;48.870;12.542;2023-02-28T08:27:46;6.13;;;5.53;;
1475;SDS011;730;48.870;12.542;2023-02-28T08:30:13;5.40;;;4.90;;
1475;SDS011;730;48.870;12.542;2023-02-28T08:32:40;6.03;;;5.30;;
1475;SDS011;730;48.870;12.542;2023-02-28T08:35:06;8.17;;;6.40;;
1475;SDS011;730;48.870;12.542;2023-02-28T08:37:34;5.57;;;4.90;;
1475;SDS011;730;48.870;12.542;2023-02-28T08:40:01;7.13;;;5.90;;
1475;SDS011;730;48.870;12.542;2023-02-28T08:42:29;10.43;;;7.30;;
1475;SDS011;730;48.870;12.542;2023-02-28T08:44:55;7.00;;;5.10;;
1475;SDS011;730;48.870;12.542;2023-02-28T08:47:21;5.80;;;5.20;;
1475;SDS011;730;48.870;12.542;2023-02-28T08:49:47;5.47;;;4.83;;
1475;SDS011;730;48.870;12.542;2023-02-28T08:52:14;5.97;;;4.83;;
1475;SDS011;730;48.870;12.542;2023-02-28T08:54:40;6.83;;;5.27;;
1475;SDS011;730;48.870;12.542;2023-02-28T08:57:07;6.00;;;5.50;;
1475;SDS011;730;48.870;12.542;2023-02-28T08:59:33;6.90;;;4.80;;
1475;SDS011;730;48.870;12.542;2023-02-28T09:01:59;5.90;;;5.30;;
1475;SDS011;730;48.870;12.542;2023-02-28T09:04:25;6.03;;;4.97;;
1475;SDS011;730;48.870;12.542;2023-02-28T09:06:51;6.60;;;5.40;;
1475;SDS011;730;48.870;12.542;2023-02-28T09:09:17;8.50;;;6.17;;
1475;SDS011;730;48.870;12.542;2023-02-28T09:11:43;5.20;;;4.70;;
1475;SDS011;730;48.870;12.542;2023-02-28T09:14:13;8.13;;;5.63;;
1475;SDS011;730;48.870;12.542;2023-02-28T09:16:39;6.60;;;5.53;;
1475;SDS011;730;48.870;12.542;2023-02-28T09:19:05;7.00;;;4.93;;
1475;SDS011;730;48.870;12.542;2023-02-28T09:21:31;7.17;;;6.47;;
1475;SDS011;730;48.870;12.542;2023-02-28T09:23:57;5.60;;;5.07;;
1475;SDS011;730;48.870;12.542;2023-02-28T09:26:24;33.00;;;8.30;;
1475;SDS011;730;48.870;12.542;2023-02-28T09:28:52;6.43;;;5.73;;
1475;SDS011;730;48.870;12.542;2023-02-28T09:31:21;5.83;;;5.23;;
1475;SDS011;730;48.870;12.542;2023-02-28T09:33:52;5.60;;;5.10;;
1475;SDS011;730;48.870;12.542;2023-02-28T09:36:19;6.20;;;4.63;;
1475;SDS011;730;48.870;12.542;2023-02-28T09:38:46;4.73;;;4.23;;
1475;SDS011;730;48.870;12.542;2023-02-28T09:41:13;4.73;;;4.27;;
1475;SDS011;730;48.870;12.542;2023-02-28T09:43:46;4.70;;;4.30;;
1475;SDS011;730;48.870;12.542;2023-02-28T09:49:00;5.93;;;4.67;;
1475;SDS011;730;48.870;12.542;2023-02-28T09:54:18;5.10;;;4.60;;
1475;SDS011;730;48.870;12.542;2023-02-28T09:56:55;6.07;;;4.37;;
1475;SDS011;730;48.870;12.542;2023-02-28T10:02:17;6.60;;;4.10;;
1475;SDS011;730;48.870;12.542;2023-02-28T10:07:36;4.90;;;4.50;;
1475;SDS011;730;48.870;12.542;2023-02-28T10:10:24;5.70;;;4.47;;
1475;SDS011;730;48.870;12.542;2023-02-28T10:12:58;6.00;;;4.40;;
1475;SDS011;730;48.870;12.542;2023-02-28T10:15:29;5.03;;;4.40;;
1475;SDS011;730;48.870;12.542;2023-02-28T10:17:57;5.33;;;4.43;;
1475;SDS011;730;48.870;12.542;2023-02-28T10:20:27;4.47;;;4.07;;
1475;SDS011;730;48.870;12.542;2023-02-28T10:23:02;7.63;;;5.73;;
1475;SDS011;730;48.870;12.542;2023-02-28T10:25:37;8.90;;;5.50;;
1475;SDS011;730;48.870;12.542;2023-02-28T10:30:33;8.00;;;5.00;;
1475;SDS011;730;48.870;12.542;2023-02-28T10:33:00;6.07;;;5.03;;
1475;SDS011;730;48.870;12.542;2023-02-28T10:35:26;5.53;;;4.30;;
1475;SDS011;730;48.870;12.542;2023-02-28T10:37:56;4.60;;;4.13;;
1475;SDS011;730;48.870;12.542;2023-02-28T10:43:00;5.50;;;4.80;;
1475;SDS011;730;48.870;12.542;2023-02-28T10:45:31;7.80;;;5.07;;
1475;SDS011;730;48.870;12.542;2023-02-28T10:48:22;5.10;;;4.60;;
1475;SDS011;730;48.870;12.542;2023-02-28T10:50:56;5.30;;;4.53;;
1475;SDS011;730;48.870;12.542;2023-02-28T10:58:47;5.90;;;4.70;;
1475;SDS011;730;48.870;12.542;2023-02-28T11:03:49;5.37;;;4.83;;
1475;SDS011;730;48.870;12.542;2023-02-28T11:06:17;4.77;;;4.23;;
1475;SDS011;730;48.870;12.542;2023-02-28T11:08:50;4.90;;;4.40;;
1475;SDS011;730;48.870;12.542;2023-02-28T11:11:19;6.10;;;4.90;;
1475;SDS011;730;48.870;12.542;2023-02-28T11:13:46;5.87;;;4.60;;
1475;SDS011;730;48.870;12.542;2023-02-28T11:16:16;4.90;;;4.40;;
1475;SDS011;730;48.870;12.542;2023-02-28T11:23:46;7.43;;;5.10;;
1475;SDS011;730;48.870;12.542;2023-02-28T11:26:16;5.87;;;4.60;;
1475;SDS011;730;48.870;12.542;2023-02-28T11:29:09;6.97;;;5.10;;
1475;SDS011;730;48.870;12.542;2023-02-28T11:34:39;5.80;;;4.63;;
1475;SDS011;730;48.870;12.542;2023-02-28T11:37:14;4.87;;;4.47;;
1475;SDS011;730;48.870;12.542;2023-02-28T11:39:42;9.07;;;5.23;;
1475;SDS011;730;48.870;12.542;2023-02-28T11:50:26;7.33;;;5.50;;
1475;SDS011;730;48.870;12.542;2023-02-28T11:53:10;6.20;;;5.13;;
1475;SDS011;730;48.870;12.542;2023-02-28T11:55:52;4.80;;;4.40;;
1475;SDS011;730;48.870;12.542;2023-02-28T11:58:47;6.10;;;4.63;;
1475;SDS011;730;48.870;12.542;2023-02-28T12:01:28;5.40;;;4.67;;
1475;SDS011;730;48.870;12.542;2023-02-28T12:04:21;5.97;;;5.37;;
1475;SDS011;730;48.870;12.542;2023-02-28T12:07:16;7.40;;;5.30;;
1475;SDS011;730;48.870;12.542;2023-02-28T12:09:58;5.70;;;5.20;;
1475;SDS011;730;48.870;12.542;2023-02-28T12:12:31;5.90;;;5.30;;
1475;SDS011;730;48.870;12.542;2023-02-28T12:15:27;6.17;;;4.80;;
1475;SDS011;730;48.870;12.542;2023-02-28T12:26:50;6.53;;;5.40;;
1475;SDS011;730;48.870;12.542;2023-02-28T12:29:32;6.70;;;4.83;;
1475;SDS011;730;48.870;12.542;2023-02-28T12:32:06;7.00;;;5.33;;
1475;SDS011;730;48.870;12.542;2023-02-28T12:34:49;6.87;;;5.37;;
1475;SDS011;730;48.870;12.542;2023-02-28T12:40:09;5.73;;;4.70;;
1475;SDS011;730;48.870;12.542;2023-02-28T12:42:40;6.30;;;5.40;;
1475;SDS011;730;48.870;12.542;2023-02-28T12:45:13;5.63;;;5.10;;
1475;SDS011;730;48.870;12.542;2023-02-28T12:47:57;5.60;;;4.93;;
1475;SDS011;730;48.870;12.542;2023-02-28T12:50:28;5.33;;;4.77;;
1475;SDS011;730;48.870;12.542;2023-02-28T12:55:35;5.90;;;5.30;;
1475;SDS011;730;48.870;12.542;2023-02-28T13:01:36;6.73;;;5.10;;
1475;SDS011;730;48.870;12.542;2023-02-28T13:07:20;5.70;;;5.10;;
1475;SDS011;730;48.870;12.542;2023-02-28T13:10:06;5.70;;;4.50;;
1475;SDS011;730;48.870;12.542;2023-02-28T13:12:33;6.10;;;5.50;;
1475;SDS011;730;48.870;12.542;2023-02-28T13:15:02;6.70;;;5.53;;
1475;SDS011;730;48.870;12.542;2023-02-28T13:17:52;6.17;;;5.57;;
1475;SDS011;730;48.870;12.542;2023-02-28T13:20:21;6.67;;;5.20;;
1475;SDS011;730;48.870;12.542;2023-02-28T13:22:54;8.87;;;6.53;;
1475;SDS011;730;48.870;12.542;2023-02-28T13:28:57;6.73;;;5.93;;
1475;SDS011;730;48.870;12.542;2023-02-28T13:31:19;7.10;;;6.33;;
1475;SDS011;730;48.870;12.542;2023-02-28T13:38:41;7.43;;;6.20;;
1475;SDS011;730;48.870;12.542;2023-02-28T13:44:10;5.97;;;5.37;;
1475;SDS011;730;48.870;12.542;2023-02-28T14:07:28;8.07;;;5.93;;
1475;SDS011;730;48.870;12.542;2023-02-28T14:10:04;6.70;;;6.10;;
1475;SDS011;730;48.870;12.542;2023-02-28T14:16:06;6.63;;;5.80;;
1475;SDS011;730;48.870;12.542;2023-02-28T14:18:18;8.13;;;7.33;;
1475;SDS011;730;48.870;12.542;2023-02-28T14:20:46;6.67;;;6.07;;
1475;SDS011;730;48.870;12.542;2023-02-28T14:23:21;7.60;;;6.87;;
1475;SDS011;730;48.870;12.542;2023-02-28T14:28:50;7.70;;;6.23;;
1475;SDS011;730;48.870;12.542;2023-02-28T14:31:43;7.17;;;6.10;;
1475;SDS011;730;48.870;12.542;2023-02-28T14:34:32;7.47;;;6.77;;
1475;SDS011;730;48.870;12.542;2023-02-28T14:37:10;7.23;;;6.53;;
1475;SDS011;730;48.870;12.542;2023-02-28T14:39:42;6.57;;;5.97;;
1475;SDS011;730;48.870;12.542;2023-02-28T14:42:29;6.60;;;5.87;;
1475;SDS011;730;48.870;12.542;2023-02-28T14:45:00;6.80;;;6.20;;
1475;SDS011;730;48.870;12.542;2023-02-28T14:47:35;7.70;;;6.30;;
1475;SDS011;730;48.870;12.542;2023-02-28T14:50:03;9.77;;;6.40;;
1475;SDS011;730;48.870;12.542;2023-02-28T14:52:31;8.30;;;6.80;;
1475;SDS011;730;48.870;12.542;2023-02-28T14:55:11;8.07;;;6.83;;
1475;SDS011;730;48.870;12.542;2023-02-28T14:57:50;7.07;;;6.40;;
1475;SDS011;730;48.870;12.542;2023-02-28T15:00:30;7.93;;;7.13;;
1475;SDS011;730;48.870;12.542;2023-02-28T15:06:06;7.77;;;6.40;;
1475;SDS011;730;48.870;12.542;2023-02-28T15:08:39;8.73;;;6.80;;
1475;SDS011;730;48.870;12.542;2023-02-28T15:11:07;8.40;;;7.17;;
1475;SDS011;730;48.870;12.542;2023-02-28T15:13:42;7.93;;;7.13;;
1475;SDS011;730;48.870;12.542;2023-02-28T15:19:03;6.90;;;6.30;;
1475;SDS011;730;48.870;12.542;2023-02-28T15:26:53;8.43;;;7.63;;
1475;SDS011;730;48.870;12.542;2023-02-28T15:29:26;9.40;;;8.10;;
1475;SDS011;730;48.870;12.542;2023-02-28T15:32:00;10.13;;;9.13;;
1475;SDS011;730;48.870;12.542;2023-02-28T15:34:42;8.90;;;7.40;;
1475;SDS011;730;48.870;12.542;2023-02-28T15:39:56;10.97;;;9.77;;
1475;SDS011;730;48.870;12.542;2023-02-28T15:42:27;11.10;;;10.10;;
1475;SDS011;730;48.870;12.542;2023-02-28T15:44:54;15.63;;;11.53;;
1475;SDS011;730;48.870;12.542;2023-02-28T15:49:50;16.07;;;13.47;;
1475;SDS011;730;48.870;12.542;2023-02-28T15:52:20;12.77;;;10.80;;
1475;SDS011;730;48.870;12.542;2023-02-28T15:54:51;9.47;;;8.40;;
1475;SDS011;730;48.870;12.542;2023-02-28T15:57:21;10.73;;;6.53;;
1475;SDS011;730;48.870;12.542;2023-02-28T15:59:51;11.07;;;9.93;;
1475;SDS011;730;48.870;12.542;2023-02-28T16:04:58;8.10;;;6.67;;
1475;SDS011;730;48.870;12.542;2023-02-28T16:07:25;9.40;;;7.73;;
1475;SDS011;730;48.870;12.542;2023-02-28T16:09:51;8.70;;;7.30;;
1475;SDS011;730;48.870;12.542;2023-02-28T16:12:18;9.13;;;8.23;;
1475;SDS011;730;48.870;12.542;2023-02-28T16:14:46;9.80;;;8.70;;
1475;SDS011;730;48.870;12.542;2023-02-28T16:17:19;14.50;;;9.80;;
1475;SDS011;730;48.870;12.542;2023-02-28T16:19:55;9.97;;;8.30;;
1475;SDS011;730;48.870;12.542;2023-02-28T16:22:21;9.47;;;7.50;;
1475;SDS011;730;48.870;12.542;2023-02-28T16:24:48;9.17;;;8.20;;
1475;SDS011;730;48.870;12.542;2023-02-28T16:27:16;10.30;;;9.03;;
1475;SDS011;730;48.870;12.542;2023-02-28T16:29:47;10.10;;;8.00;;
1475;SDS011;730;48.870;12.542;2023-02-28T16:32:15;10.20;;;9.10;;
1475;SDS011;730;48.870;12.542;2023-02-28T16:34:43;10.80;;;8.57;;
1475;SDS011;730;48.870;12.542;2023-02-28T16:37:13;9.77;;;8.20;;
1475;SDS011;730;48.870;12.542;2023-02-28T16:39:43;8.90;;;7.40;;
1475;SDS011;730;48.870;12.542;2023-02-28T16:42:19;14.50;;;10.10;;
1475;SDS011;730;48.870;12.542;2023-02-28T16:44:49;11.52;;;9.35;;
1475;SDS011;730;48.870;12.542;2023-02-28T16:47:15;11.43;;;9.80;;
1475;SDS011;730;48.870;12.542;2023-02-28T16:49:41;13.37;;;11.00;;
1475;SDS011;730;48.870;12.542;2023-02-28T16:52:09;13.52;;;10.50;;
1475;SDS011;730;48.870;12.542;2023-02-28T16:54:37;10.50;;;9.40;;
1475;SDS011;730;48.870;12.542;2023-02-28T16:57:04;10.60;;;9.20;;
1475;SDS011;730;48.870;12.542;2023-02-28T16:59:32;10.43;;;9.10;;
1475;SDS011;730;48.870;12.542;2023-02-28T17:01:58;11.45;;;9.65;;
1475;SDS011;730;48.870;12.542;2023-02-28T17:04:31;11.00;;;9.27;;
1475;SDS011;730;48.870;12.542;2023-02-28T17:06:59;11.02;;;8.85;;
1475;SDS011;730;48.870;12.542;2023-02-28T17:09:26;10.40;;;8.98;;
1475;SDS011;730;48.870;12.542;2023-02-28T17:11:52;11.15;;;9.27;;
1475;SDS011;730;48.870;12.542;2023-02-28T17:14:24;13.90;;;10.38;;
1475;SDS011;730;48.870;12.542;2023-02-28T17:16:50;10.90;;;9.80;;
1475;SDS011;730;48.870;12.542;2023-02-28T17:19:17;11.45;;;9.50;;
1475;SDS011;730;48.870;12.542;2023-02-28T17:21:44;11.30;;;10.10;;
1475;SDS011;730;48.870;12.542;2023-02-28T17:24:11;10.70;;;9.60;;
1475;SDS011;730;48.870;12.542;2023-02-28T17:26:43;12.35;;;9.75;;
1475;SDS011;730;48.870;12.542;2023-02-28T17:29:17;12.10;;;10.77;;
1475;SDS011;730;48.870;12.542;2023-02-28T17:31:45;12.55;;;10.32;;
1475;SDS011;730;48.870;12.542;2023-02-28T17:34:14;12.23;;;10.60;;
1475;SDS011;730;48.870;12.542;2023-02-28T17:36:48;13.13;;;10.35;;
1475;SDS011;730;48.870;12.542;2023-02-28T17:39:18;12.63;;;9.88;;
1475;SDS011;730;48.870;12.542;2023-02-28T17:41:51;17.10;;;11.68;;
1475;SDS011;730;48.870;12.542;2023-02-28T17:44:18;20.65;;;15.35;;
1475;SDS011;730;48.870;12.542;2023-02-28T17:46:45;27.48;;;20.85;;
1475;SDS011;730;48.870;12.542;2023-02-28T17:49:13;19.20;;;14.57;;
1475;SDS011;730;48.870;12.542;2023-02-28T17:51:39;15.77;;;12.95;;
1475;SDS011;730;48.870;12.542;2023-02-28T17:54:05;15.55;;;12.90;;
1475;SDS011;730;48.870;12.542;2023-02-28T17:56:32;15.63;;;11.52;;
1475;SDS011;730;48.870;12.542;2023-02-28T17:58:59;17.05;;;12.80;;
1475;SDS011;730;48.870;12.542;2023-02-28T18:01:25;19.35;;;11.88;;
1475;SDS011;730;48.870;12.542;2023-02-28T18:03:52;20.67;;;16.20;;
1475;SDS011;730;48.870;12.542;2023-02-28T18:06:21;16.27;;;12.52;;
1475;SDS011;730;48.870;12.542;2023-02-28T18:08:50;17.15;;;13.25;;